createdAt,value
2023-01-17T00:02:21.665Z,63.78
2023-01-17T00:06:23.181Z,63.81
2023-01-17T00:10:09.480Z,64.32
2023-01-17T00:13:52.290Z,64.21
2023-01-17T00:17:34.958Z,64.33
2023-01-17T00:21:35.404Z,63.95
2023-01-17T00:25:38.331Z,64.27
2023-01-17T00:29:20.043Z,64.73
2023-01-17T00:33:01.678Z,64.68
2023-01-17T00:36:43.204Z,64.75
2023-01-17T00:40:26.125Z,64.59
2023-01-17T00:44:26.226Z,64.60
2023-01-17T00:48:26.664Z,64.77
2023-01-17T00:52:26.914Z,64.96
2023-01-17T00:56:28.617Z,65.54
2023-01-17T01:00:29.968Z,65.65
2023-01-17T01:04:30.148Z,66.37
2023-01-17T01:08:38.616Z,67.15
2023-01-17T01:12:40.092Z,66.98
2023-01-17T01:16:40.308Z,67.53
2023-01-17T01:20:40.562Z,66.59
2023-01-17T01:24:40.754Z,66.59
2023-01-17T01:28:42.829Z,66.38
2023-01-17T01:32:43.033Z,65.97
2023-01-17T01:36:25.720Z,66.13
2023-01-17T01:40:10.147Z,65.73
2023-01-17T01:43:55.633Z,65.45
2023-01-17T01:47:40.730Z,64.77
2023-01-17T01:51:26.366Z,65.07
2023-01-17T01:55:13.088Z,65.11
2023-01-17T01:58:58.400Z,65.52
2023-01-17T02:02:42.003Z,64.90
2023-01-17T02:06:29.455Z,65.02
2023-01-17T02:10:12.794Z,65.25
2023-01-17T02:13:57.144Z,65.62
2023-01-17T02:17:47.785Z,65.28
2023-01-17T02:21:33.180Z,65.67
2023-01-17T02:25:34.524Z,65.73
2023-01-17T02:29:43.143Z,65.49
2023-01-17T02:33:32.565Z,65.71
2023-01-17T02:37:18.095Z,66.42
2023-01-17T02:41:03.765Z,66.32
2023-01-17T02:44:46.627Z,65.93
2023-01-17T02:48:32.141Z,66.04
2023-01-17T02:52:23.808Z,65.98
2023-01-17T02:56:12.436Z,66.10
2023-01-17T03:00:01.330Z,66.17
2023-01-17T03:03:49.622Z,66.59
2023-01-17T03:07:33.368Z,66.14
2023-01-17T03:11:16.536Z,66.17
2023-01-17T03:14:59.396Z,65.90
2023-01-17T03:18:42.365Z,65.70
2023-01-17T03:22:26.376Z,66.21
2023-01-17T03:26:09.242Z,65.83
2023-01-17T03:29:51.897Z,65.68
2023-01-17T03:33:34.601Z,66.12
2023-01-17T03:37:17.275Z,66.20
2023-01-17T03:41:01.327Z,66.10
2023-01-17T03:44:43.998Z,66.00
2023-01-17T03:48:26.658Z,66.33
2023-01-17T03:52:09.353Z,66.34
2023-01-17T03:55:52.054Z,66.49
2023-01-17T03:59:36.157Z,66.62
2023-01-17T04:03:18.844Z,66.73
2023-01-17T04:07:01.525Z,66.88
2023-01-17T04:10:44.248Z,67.52
2023-01-17T04:14:26.997Z,67.14
2023-01-17T04:18:12.847Z,66.78
2023-01-17T04:21:55.560Z,66.71
2023-01-17T04:25:38.506Z,66.74
2023-01-17T04:29:21.477Z,67.47
2023-01-17T04:33:04.262Z,67.24
2023-01-17T04:36:48.271Z,66.85
2023-01-17T04:40:30.949Z,67.45
2023-01-17T04:44:13.641Z,66.82
2023-01-17T04:47:56.498Z,66.96
2023-01-17T04:51:39.190Z,66.92
2023-01-17T04:55:23.231Z,66.24
2023-01-17T04:59:06.051Z,66.32
2023-01-17T05:02:48.757Z,65.99
2023-01-17T05:06:31.489Z,66.53
2023-01-17T05:10:14.148Z,65.56
2023-01-17T05:13:58.180Z,66.01
2023-01-17T05:17:40.836Z,66.07
2023-01-17T05:21:23.673Z,65.91
2023-01-17T05:25:07.071Z,66.42
2023-01-17T05:28:49.715Z,66.35
2023-01-17T05:32:33.865Z,66.06
2023-01-17T05:36:16.537Z,66.47
2023-01-17T05:39:59.235Z,65.94
2023-01-17T05:43:41.965Z,66.17
2023-01-17T05:47:24.741Z,65.60
2023-01-17T05:51:08.877Z,65.98
2023-01-17T05:54:51.550Z,66.64
2023-01-17T05:58:34.228Z,67.22
2023-01-17T06:02:16.937Z,66.42
2023-01-17T06:05:59.633Z,66.37
2023-01-17T06:09:43.676Z,66.91
2023-01-17T06:13:26.515Z,67.04
2023-01-17T06:17:09.208Z,67.41
2023-01-17T06:20:54.231Z,67.37
2023-01-17T06:24:36.911Z,67.90
2023-01-17T06:28:22.866Z,68.02
2023-01-17T06:32:05.911Z,68.48
2023-01-17T06:35:50.009Z,68.55
2023-01-17T06:39:32.820Z,68.30
2023-01-17T06:43:15.557Z,69.00
2023-01-17T06:46:59.617Z,68.81
2023-01-17T06:50:42.310Z,69.14
2023-01-17T06:54:24.998Z,69.09
2023-01-17T06:58:07.647Z,68.70
2023-01-17T07:01:51.087Z,69.03
2023-01-17T07:05:36.290Z,68.67
2023-01-17T07:09:18.967Z,68.48
2023-01-17T07:13:01.644Z,69.29
2023-01-17T07:16:46.975Z,69.06
2023-01-17T07:20:29.655Z,68.68
2023-01-17T07:24:13.888Z,68.56
2023-01-17T07:27:57.638Z,69.79
2023-01-17T07:31:40.484Z,69.46
2023-01-17T07:35:26.654Z,65.78
2023-01-17T07:39:13.547Z,65.53
2023-01-17T07:43:01.980Z,65.07
2023-01-17T07:46:44.659Z,65.35
2023-01-17T07:50:27.317Z,65.46
2023-01-17T07:54:09.943Z,65.38
2023-01-17T07:57:54.108Z,65.26
2023-01-17T08:01:36.901Z,65.20
2023-01-17T08:05:20.002Z,65.79
2023-01-17T08:09:02.653Z,65.43
2023-01-17T08:12:46.390Z,64.98
2023-01-17T08:16:30.513Z,64.21
2023-01-17T08:20:13.579Z,63.57
2023-01-17T08:23:56.302Z,63.28
2023-01-17T08:27:39.245Z,63.09
2023-01-17T08:31:36.142Z,62.94
2023-01-17T08:35:21.011Z,62.33
2023-01-17T08:39:04.416Z,62.52
2023-01-17T08:42:54.896Z,62.17
2023-01-17T08:46:41.066Z,62.00
2023-01-17T08:50:24.983Z,62.02
2023-01-17T08:54:07.704Z,61.70
2023-01-17T08:57:50.503Z,61.69
2023-01-17T09:01:41.757Z,61.35
2023-01-17T09:05:27.738Z,60.86
2023-01-17T09:09:11.698Z,60.72
2023-01-17T09:12:54.445Z,59.92
2023-01-17T09:16:37.101Z,60.13
2023-01-17T09:20:20.063Z,60.08
2023-01-17T09:24:04.238Z,59.44
2023-01-17T09:27:47.753Z,59.05
2023-01-17T09:31:30.538Z,58.42
2023-01-17T09:35:13.589Z,58.46
2023-01-17T09:38:57.885Z,58.85
2023-01-17T09:42:42.246Z,59.31
2023-01-17T09:46:28.103Z,59.64
2023-01-17T09:50:21.792Z,59.39
2023-01-17T09:54:04.694Z,58.70
2023-01-17T09:57:57.474Z,58.61
2023-01-17T10:01:46.413Z,58.21
2023-01-17T10:05:40.698Z,56.30
2023-01-17T10:10:06.634Z,56.31
2023-01-17T10:13:59.707Z,54.63
2023-01-17T10:17:49.091Z,54.64
2023-01-17T10:21:44.942Z,54.54
2023-01-17T10:25:40.747Z,54.39
2023-01-17T10:29:28.387Z,53.63
2023-01-17T10:33:16.260Z,52.68
2023-01-17T10:37:03.157Z,52.09
2023-01-17T10:40:50.169Z,51.98
2023-01-17T10:44:36.962Z,51.56
2023-01-17T10:48:26.655Z,51.73
2023-01-17T10:52:14.487Z,51.51
2023-01-17T10:55:57.994Z,51.07
2023-01-17T10:59:42.061Z,50.10
2023-01-17T11:03:25.768Z,49.40
2023-01-17T11:07:14.052Z,50.07
2023-01-17T11:10:57.994Z,49.19
2023-01-17T11:14:42.081Z,49.60
2023-01-17T11:18:27.478Z,50.31
2023-01-17T11:22:15.151Z,48.73
2023-01-17T11:25:59.812Z,48.68
2023-01-17T11:29:43.916Z,49.23
2023-01-17T11:33:35.362Z,48.96
2023-01-17T11:37:19.568Z,49.24
2023-01-17T11:41:20.275Z,49.80
2023-01-17T11:45:25.831Z,49.19
2023-01-17T11:49:23.665Z,49.93
2023-01-17T11:53:08.124Z,49.87
2023-01-17T11:56:51.891Z,50.37
2023-01-17T12:00:39.283Z,50.85
2023-01-17T12:04:25.257Z,50.01
2023-01-17T12:08:15.462Z,50.84
2023-01-17T12:12:22.754Z,50.18
2023-01-17T12:16:30.153Z,50.34
2023-01-17T12:20:22.615Z,50.98
2023-01-17T12:24:29.618Z,51.27
2023-01-17T12:28:27.466Z,51.36
2023-01-17T12:32:24.821Z,50.82
2023-01-17T12:36:17.520Z,50.66
2023-01-17T12:40:03.469Z,50.16
2023-01-17T12:43:46.267Z,49.90
2023-01-17T12:47:31.194Z,50.37
2023-01-17T12:51:16.960Z,51.16
2023-01-17T12:55:03.496Z,51.26
2023-01-17T12:58:48.567Z,50.65
2023-01-17T13:02:37.491Z,50.37
2023-01-17T13:06:25.003Z,50.33
2023-01-17T13:10:26.219Z,50.25
2023-01-17T13:14:10.383Z,49.93
2023-01-17T13:17:58.699Z,50.03
2023-01-17T13:21:41.789Z,49.80
2023-01-17T13:25:34.386Z,50.18
2023-01-17T13:29:28.506Z,50.48
2023-01-17T13:33:35.788Z,50.43
2023-01-17T13:37:39.468Z,50.66
2023-01-17T13:41:37.957Z,51.19
2023-01-17T13:45:22.766Z,51.53
2023-01-17T13:49:35.143Z,51.54
2023-01-17T13:53:59.937Z,51.22
2023-01-17T13:57:46.683Z,51.34
2023-01-17T14:01:53.525Z,51.04
2023-01-17T14:05:58.325Z,50.11
2023-01-17T14:09:43.208Z,49.31
2023-01-17T14:13:34.009Z,54.51
2023-01-17T14:17:49.029Z,52.45
2023-01-17T14:21:33.405Z,51.27
2023-01-17T14:25:18.970Z,49.40
2023-01-17T14:29:35.057Z,49.32
2023-01-17T14:33:20.673Z,48.97
2023-01-17T14:37:17.263Z,49.60
2023-01-17T14:41:02.399Z,50.10
2023-01-17T14:44:50.498Z,51.21
2023-01-17T14:48:33.816Z,51.76
2023-01-17T14:52:21.648Z,52.05
2023-01-17T14:56:14.514Z,52.28
2023-01-17T15:00:16.158Z,53.03
2023-01-17T15:03:59.103Z,53.72
2023-01-17T15:07:44.417Z,54.27
2023-01-17T15:11:30.074Z,54.59
2023-01-17T15:15:28.773Z,54.81
2023-01-17T15:19:12.834Z,55.43
2023-01-17T15:22:56.901Z,55.95
2023-01-17T15:26:42.140Z,56.25
2023-01-17T15:30:25.392Z,56.57
2023-01-17T15:34:09.634Z,57.01
2023-01-17T15:37:54.577Z,57.29
2023-01-17T15:41:39.700Z,57.94
2023-01-17T15:45:25.718Z,58.27
2023-01-17T15:49:20.043Z,58.80
2023-01-17T15:53:04.749Z,59.13
2023-01-17T15:56:48.937Z,59.74
2023-01-17T16:00:38.360Z,59.73
2023-01-17T16:04:28.641Z,59.94
2023-01-17T16:08:33.114Z,60.84
2023-01-17T16:12:17.155Z,60.87
2023-01-17T16:16:19.877Z,60.93
2023-01-17T16:20:02.757Z,61.26
2023-01-17T16:23:45.655Z,61.48
2023-01-17T16:27:29.966Z,61.39
2023-01-17T16:31:13.026Z,61.62
2023-01-17T16:34:55.724Z,62.08
2023-01-17T16:38:38.416Z,62.02
2023-01-17T16:42:21.072Z,62.33
2023-01-17T16:46:05.245Z,62.28
2023-01-17T16:49:47.946Z,62.25
2023-01-17T16:53:30.732Z,62.41
2023-01-17T16:57:14.252Z,62.36
2023-01-17T17:00:57.766Z,62.46
2023-01-17T17:04:41.993Z,62.55
2023-01-17T17:08:25.369Z,62.76
2023-01-17T17:12:08.683Z,62.81
2023-01-17T17:15:51.408Z,63.11
2023-01-17T17:19:34.546Z,63.12
2023-01-17T17:23:18.627Z,63.20
2023-01-17T17:27:01.338Z,63.20
2023-01-17T17:30:44.039Z,63.36
2023-01-17T17:34:27.665Z,63.13
2023-01-17T17:38:10.325Z,63.07
2023-01-17T17:41:54.399Z,63.50
2023-01-17T17:45:37.029Z,63.39
2023-01-17T17:49:21.686Z,63.48
2023-01-17T17:53:04.370Z,63.41
2023-01-17T17:56:48.258Z,63.41
2023-01-17T18:00:32.278Z,63.58
2023-01-17T18:04:15.240Z,63.95
2023-01-17T18:07:57.861Z,63.38
2023-01-17T18:11:42.712Z,63.66
2023-01-17T18:15:26.368Z,63.71
2023-01-17T18:19:14.511Z,63.95
2023-01-17T18:22:57.280Z,63.97
2023-01-17T18:26:41.656Z,64.16
2023-01-17T18:30:24.333Z,64.16
2023-01-17T18:34:09.091Z,63.88
2023-01-17T18:37:53.260Z,64.33
2023-01-17T18:41:36.087Z,64.40
2023-01-17T18:45:18.800Z,64.79
2023-01-17T18:49:01.769Z,64.78
2023-01-17T18:52:44.493Z,65.02
2023-01-17T18:56:29.533Z,64.71
2023-01-17T19:00:14.836Z,64.60
2023-01-17T19:04:00.166Z,64.88
2023-01-17T19:07:42.890Z,64.64
2023-01-17T19:11:26.564Z,64.35
2023-01-17T19:15:11.715Z,64.31
2023-01-17T19:18:54.769Z,64.35
2023-01-17T19:22:37.481Z,64.20
2023-01-17T19:26:22.845Z,64.18
2023-01-17T19:30:06.633Z,64.29
2023-01-17T19:33:52.117Z,64.65
2023-01-17T19:37:34.756Z,64.37
2023-01-17T19:41:20.187Z,64.38
2023-01-17T19:45:03.127Z,64.62
2023-01-17T19:48:46.003Z,64.83
2023-01-17T19:52:31.767Z,64.78
2023-01-17T19:56:15.848Z,64.76
2023-01-17T19:59:58.597Z,64.99
2023-01-17T20:03:42.413Z,64.68
2023-01-17T20:07:26.235Z,65.08
2023-01-17T20:11:13.417Z,64.87
2023-01-17T20:14:56.167Z,65.50
2023-01-17T20:18:39.053Z,65.73
2023-01-17T20:22:22.016Z,65.74
2023-01-17T20:26:05.029Z,66.02
2023-01-17T20:29:50.444Z,66.40
2023-01-17T20:33:33.304Z,66.67
2023-01-17T20:37:15.971Z,66.66
2023-01-17T20:40:58.621Z,66.79
2023-01-17T20:44:41.317Z,66.96
2023-01-17T20:48:25.362Z,67.14
2023-01-17T20:52:08.115Z,67.39
2023-01-17T20:55:57.261Z,67.06
2023-01-17T20:59:40.047Z,67.25
2023-01-17T21:03:23.814Z,67.17
2023-01-17T21:07:07.857Z,67.55
2023-01-17T21:10:50.831Z,67.76
2023-01-17T21:14:33.603Z,68.07
2023-01-17T21:18:17.220Z,68.46
2023-01-17T21:22:00.096Z,68.29
2023-01-17T21:25:44.135Z,68.60
2023-01-17T21:29:29.060Z,68.76
2023-01-17T21:33:11.781Z,69.41
2023-01-17T21:36:54.444Z,69.30
2023-01-17T21:40:37.170Z,69.11
2023-01-17T21:44:22.497Z,69.45
2023-01-17T21:48:08.089Z,69.99
2023-01-17T21:52:08.508Z,69.18
2023-01-17T21:56:05.111Z,68.93
2023-01-17T21:59:49.176Z,85.31
2023-01-17T22:03:31.880Z,68.59
2023-01-17T22:07:14.540Z,62.04
2023-01-17T22:10:57.158Z,63.56
2023-01-17T22:14:40.208Z,64.89
2023-01-17T22:18:24.511Z,65.84
2023-01-17T22:22:07.154Z,66.83
2023-01-17T22:25:49.950Z,67.57
2023-01-17T22:29:36.352Z,67.81
2023-01-17T22:33:19.026Z,68.21
2023-01-17T22:37:04.713Z,68.28
2023-01-17T22:40:47.458Z,68.69
2023-01-17T22:44:30.218Z,68.52
2023-01-17T22:48:14.618Z,68.69
2023-01-17T22:51:57.301Z,68.88
2023-01-17T22:55:41.482Z,69.07
2023-01-17T22:59:24.340Z,69.39
2023-01-17T23:03:07.195Z,69.77
2023-01-17T23:06:49.984Z,69.38
2023-01-17T23:10:50.254Z,69.52
2023-01-17T23:14:49.289Z,69.84
2023-01-17T23:19:00.951Z,69.74
2023-01-17T23:22:43.693Z,69.94
2023-01-17T23:26:26.619Z,69.76
2023-01-17T23:30:13.338Z,70.01
2023-01-17T23:33:56.127Z,70.27
2023-01-17T23:37:56.437Z,70.15
2023-01-17T23:41:55.941Z,70.30
2023-01-17T23:45:40.579Z,70.00
2023-01-17T23:49:23.329Z,70.05
2023-01-17T23:53:07.958Z,69.89
2023-01-17T23:56:50.727Z,69.83
